sensor_id;sensor_type;location;lat;lon;timestamp;pressure;altitude;pressure_sealevel;temperature;humidity
73936;BME280;62287;50.858;0.252;2023-05-24T00:00:13;102491.69;;;15.63;33.96
73936;BME280;62287;50.858;0.252;2023-05-24T00:00:44;102488.10;;;16.05;34.05
73936;BME280;62287;50.858;0.252;2023-05-24T00:01:15;102485.08;;;16.08;34.12
73936;BME280;62287;50.858;0.252;2023-05-24T00:01:46;102485.10;;;16.03;34.13
73936;BME280;62287;50.858;0.252;2023-05-24T00:02:17;102483.19;;;16.07;34.10
73936;BME280;62287;50.858;0.252;2023-05-24T00:02:48;102482.27;;;16.23;34.00
73936;BME280;62287;50.858;0.252;2023-05-24T00:03:19;102482.89;;;16.11;34.16
73936;BME280;62287;50.858;0.252;2023-05-24T00:03:50;102483.44;;;15.64;34.28
73936;BME280;62287;50.858;0.252;2023-05-24T00:04:21;102482.88;;;16.07;34.27
73936;BME280;62287;50.858;0.252;2023-05-24T00:04:52;102483.45;;;15.59;34.30
73936;BME280;62287;50.858;0.252;2023-05-24T00:05:23;102484.30;;;15.53;34.45
73936;BME280;62287;50.858;0.252;2023-05-24T00:05:54;102482.59;;;15.74;34.48
73936;BME280;62287;50.858;0.252;2023-05-24T00:06:25;102478.97;;;15.27;34.33
73936;BME280;62287;50.858;0.252;2023-05-24T00:06:57;102478.37;;;16.16;34.34
73936;BME280;62287;50.858;0.252;2023-05-24T00:07:28;102478.98;;;15.99;34.33
73936;BME280;62287;50.858;0.252;2023-05-24T00:07:59;102478.39;;;15.90;34.47
73936;BME280;62287;50.858;0.252;2023-05-24T00:08:29;102479.05;;;15.88;34.47
73936;BME280;62287;50.858;0.252;2023-05-24T00:09:00;102476.55;;;15.59;34.47
73936;BME280;62287;50.858;0.252;2023-05-24T00:09:32;102475.95;;;15.70;34.43
73936;BME280;62287;50.858;0.252;2023-05-24T00:10:03;102474.21;;;15.59;34.48
73936;BME280;62287;50.858;0.252;2023-05-24T00:10:33;102473.69;;;15.80;34.40
73936;BME280;62287;50.858;0.252;2023-05-24T00:11:04;102472.76;;;16.01;34.46
73936;BME280;62287;50.858;0.252;2023-05-24T00:11:35;102471.46;;;16.06;34.42
73936;BME280;62287;50.858;0.252;2023-05-24T00:12:07;102470.94;;;15.68;34.46
73936;BME280;62287;50.858;0.252;2023-05-24T00:12:38;102469.88;;;16.05;34.50
73936;BME280;62287;50.858;0.252;2023-05-24T00:13:09;102471.00;;;15.81;34.36
73936;BME280;62287;50.858;0.252;2023-05-24T00:13:40;102471.04;;;16.35;34.34
73936;BME280;62287;50.858;0.252;2023-05-24T00:14:10;102469.82;;;16.26;34.27
73936;BME280;62287;50.858;0.252;2023-05-24T00:14:41;102470.74;;;16.32;34.27
73936;BME280;62287;50.858;0.252;2023-05-24T00:15:13;102471.32;;;15.48;34.26
73936;BME280;62287;50.858;0.252;2023-05-24T00:15:44;102468.92;;;15.72;34.20
73936;BME280;62287;50.858;0.252;2023-05-24T00:16:15;102469.75;;;15.84;34.30
73936;BME280;62287;50.858;0.252;2023-05-24T00:16:46;102472.01;;;15.89;34.29
73936;BME280;62287;50.858;0.252;2023-05-24T00:17:17;102471.22;;;15.75;34.13
73936;BME280;62287;50.858;0.252;2023-05-24T00:17:48;102471.05;;;16.18;34.17
73936;BME280;62287;50.858;0.252;2023-05-24T00:18:19;102470.93;;;16.24;34.14
73936;BME280;62287;50.858;0.252;2023-05-24T00:18:50;102471.10;;;15.88;34.06
73936;BME280;62287;50.858;0.252;2023-05-24T00:19:21;102470.41;;;16.26;34.14
73936;BME280;62287;50.858;0.252;2023-05-24T00:19:52;102469.01;;;15.56;34.05
73936;BME280;62287;50.858;0.252;2023-05-24T00:20:23;102469.23;;;15.76;34.02
73936;BME280;62287;50.858;0.252;2023-05-24T00:20:54;102468.72;;;15.77;33.97
73936;BME280;62287;50.858;0.252;2023-05-24T00:21:25;102469.35;;;15.52;34.12
73936;BME280;62287;50.858;0.252;2023-05-24T00:21:56;102470.95;;;16.41;34.05
73936;BME280;62287;50.858;0.252;2023-05-24T00:22:27;102470.99;;;16.23;33.99
73936;BME280;62287;50.858;0.252;2023-05-24T00:22:58;102470.06;;;16.01;34.07
73936;BME280;62287;50.858;0.252;2023-05-24T00:23:29;102470.60;;;16.01;34.09
73936;BME280;62287;50.858;0.252;2023-05-24T00:23:59;102469.94;;;15.75;34.05
73936;BME280;62287;50.858;0.252;2023-05-24T00:24:30;102472.11;;;16.21;34.09
73936;BME280;62287;50.858;0.252;2023-05-24T00:25:01;102472.67;;;15.63;34.00
73936;BME280;62287;50.858;0.252;2023-05-24T00:25:32;102473.59;;;16.26;34.04
73936;BME280;62287;50.858;0.252;2023-05-24T00:26:04;102473.11;;;15.66;33.98
73936;BME280;62287;50.858;0.252;2023-05-24T00:26:35;102471.39;;;15.57;34.02
73936;BME280;62287;50.858;0.252;2023-05-24T00:27:06;102471.27;;;16.03;33.96
73936;BME280;62287;50.858;0.252;2023-05-24T00:27:37;102472.69;;;15.64;34.00
73936;BME280;62287;50.858;0.252;2023-05-24T00:28:08;102472.28;;;15.51;34.02
73936;BME280;62287;50.858;0.252;2023-05-24T00:28:39;102471.42;;;15.84;34.12
73936;BME280;62287;50.858;0.252;2023-05-24T00:29:10;102470.49;;;15.84;33.97
73936;BME280;62287;50.858;0.252;2023-05-24T00:29:41;102471.49;;;16.11;34.12
73936;BME280;62287;50.858;0.252;2023-05-24T00:30:12;102470.06;;;15.71;34.06
73936;BME280;62287;50.858;0.252;2023-05-24T00:30:43;102470.14;;;16.29;34.01
73936;BME280;62287;50.858;0.252;2023-05-24T00:31:14;102470.50;;;16.08;34.12
73936;BME280;62287;50.858;0.252;2023-05-24T00:31:45;102468.04;;;15.48;34.13
73936;BME280;62287;50.858;0.252;2023-05-24T00:32:16;102471.70;;;15.32;34.07
73936;BME280;62287;50.858;0.252;2023-05-24T00:32:47;102469.32;;;15.82;34.03
73936;BME280;62287;50.858;0.252;2023-05-24T00:33:18;102471.04;;;15.93;34.10
73936;BME280;62287;50.858;0.252;2023-05-24T00:33:49;102470.72;;;15.78;34.06
73936;BME280;62287;50.858;0.252;2023-05-24T00:34:20;102469.26;;;15.78;33.93
73936;BME280;62287;50.858;0.252;2023-05-24T00:34:50;102470.64;;;16.20;33.99
73936;BME280;62287;50.858;0.252;2023-05-24T00:35:22;102469.59;;;15.27;34.02
73936;BME280;62287;50.858;0.252;2023-05-24T00:35:53;102469.83;;;15.83;33.91
73936;BME280;62287;50.858;0.252;2023-05-24T00:36:24;102469.83;;;15.74;33.97
73936;BME280;62287;50.858;0.252;2023-05-24T00:36:55;102469.13;;;15.99;34.06
73936;BME280;62287;50.858;0.252;2023-05-24T00:37:26;102469.77;;;15.39;34.14
73936;BME280;62287;50.858;0.252;2023-05-24T00:37:57;102468.86;;;15.84;34.07
73936;BME280;62287;50.858;0.252;2023-05-24T00:38:28;102467.74;;;16.35;34.00
73936;BME280;62287;50.858;0.252;2023-05-24T00:38:59;102466.92;;;15.87;34.14
73936;BME280;62287;50.858;0.252;2023-05-24T00:39:30;102466.63;;;15.83;34.14
73936;BME280;62287;50.858;0.252;2023-05-24T00:40:00;102466.69;;;15.75;34.11
73936;BME280;62287;50.858;0.252;2023-05-24T00:40:32;102465.94;;;15.69;34.09
73936;BME280;62287;50.858;0.252;2023-05-24T00:41:02;102465.18;;;15.97;34.09
73936;BME280;62287;50.858;0.252;2023-05-24T00:41:33;102464.04;;;15.42;34.11
73936;BME280;62287;50.858;0.252;2023-05-24T00:42:05;102465.21;;;15.51;34.00
73936;BME280;62287;50.858;0.252;2023-05-24T00:42:36;102464.73;;;15.64;34.04
73936;BME280;62287;50.858;0.252;2023-05-24T00:43:07;102464.00;;;16.05;33.96
73936;BME280;62287;50.858;0.252;2023-05-24T00:43:38;102464.10;;;15.73;33.99
73936;BME280;62287;50.858;0.252;2023-05-24T00:44:09;102461.77;;;15.43;34.13
73936;BME280;62287;50.858;0.252;2023-05-24T00:44:40;102463.52;;;15.37;33.89
73936;BME280;62287;50.858;0.252;2023-05-24T00:45:11;102462.16;;;16.11;33.92
73936;BME280;62287;50.858;0.252;2023-05-24T00:45:42;102460.66;;;15.91;34.01
73936;BME280;62287;50.858;0.252;2023-05-24T00:46:16;102460.44;;;15.35;34.09
73936;BME280;62287;50.858;0.252;2023-05-24T00:46:48;102458.93;;;15.09;34.00
73936;BME280;62287;50.858;0.252;2023-05-24T00:47:19;102461.25;;;15.68;34.05
73936;BME280;62287;50.858;0.252;2023-05-24T00:47:50;102456.88;;;15.47;34.02
73936;BME280;62287;50.858;0.252;2023-05-24T00:48:21;102459.10;;;15.67;33.90
73936;BME280;62287;50.858;0.252;2023-05-24T00:48:52;102458.05;;;15.81;33.96
73936;BME280;62287;50.858;0.252;2023-05-24T00:49:24;102462.36;;;15.23;34.02
73936;BME280;62287;50.858;0.252;2023-05-24T00:49:55;102460.19;;;15.61;34.12
73936;BME280;62287;50.858;0.252;2023-05-24T00:50:27;102460.20;;;15.65;34.03
73936;BME280;62287;50.858;0.252;2023-05-24T00:50:58;102459.77;;;15.18;34.20
73936;BME280;62287;50.858;0.252;2023-05-24T00:51:29;102460.86;;;15.50;34.18
73936;BME280;62287;50.858;0.252;2023-05-24T00:52:00;102458.07;;;15.72;34.11
73936;BME280;62287;50.858;0.252;2023-05-24T00:52:31;102460.15;;;15.46;34.30
73936;BME280;62287;50.858;0.252;2023-05-24T00:53:03;102459.69;;;15.55;34.42
73936;BME280;62287;50.858;0.252;2023-05-24T00:53:35;102459.69;;;15.78;34.40
73936;BME280;62287;50.858;0.252;2023-05-24T00:54:07;102460.80;;;15.04;34.33
73936;BME280;62287;50.858;0.252;2023-05-24T00:54:38;102461.69;;;15.44;34.39
73936;BME280;62287;50.858;0.252;2023-05-24T00:55:09;102458.62;;;15.77;34.05
73936;BME280;62287;50.858;0.252;2023-05-24T00:55:40;102459.73;;;15.59;34.13
73936;BME280;62287;50.858;0.252;2023-05-24T00:56:12;102458.33;;;15.37;34.24
73936;BME280;62287;50.858;0.252;2023-05-24T00:56:43;102458.93;;;15.46;34.17
73936;BME280;62287;50.858;0.252;2023-05-24T00:57:14;102458.33;;;15.30;34.32
73936;BME280;62287;50.858;0.252;2023-05-24T00:57:45;102458.86;;;15.31;34.23
73936;BME280;62287;50.858;0.252;2023-05-24T00:58:16;102456.98;;;15.39;34.41
73936;BME280;62287;50.858;0.252;2023-05-24T00:58:48;102457.24;;;15.37;34.26
73936;BME280;62287;50.858;0.252;2023-05-24T00:59:19;102456.32;;;15.39;34.36
73936;BME280;62287;50.858;0.252;2023-05-24T00:59:50;102457.01;;;15.36;34.40
73936;BME280;62287;50.858;0.252;2023-05-24T01:00:22;102457.44;;;15.25;34.47
73936;BME280;62287;50.858;0.252;2023-05-24T01:00:54;102458.68;;;15.28;34.44
73936;BME280;62287;50.858;0.252;2023-05-24T01:01:28;102456.95;;;15.13;34.43
73936;BME280;62287;50.858;0.252;2023-05-24T01:01:59;102456.86;;;15.36;34.35
73936;BME280;62287;50.858;0.252;2023-05-24T01:02:30;102456.66;;;15.53;34.09
73936;BME280;62287;50.858;0.252;2023-05-24T01:03:01;102453.72;;;15.66;34.01
73936;BME280;62287;50.858;0.252;2023-05-24T01:03:32;102453.33;;;15.56;34.09
73936;BME280;62287;50.858;0.252;2023-05-24T01:04:03;102452.99;;;15.39;34.27
73936;BME280;62287;50.858;0.252;2023-05-24T01:04:34;102450.78;;;15.82;34.27
73936;BME280;62287;50.858;0.252;2023-05-24T01:05:06;102451.32;;;15.45;34.34
73936;BME280;62287;50.858;0.252;2023-05-24T01:05:37;102450.27;;;15.34;34.48
73936;BME280;62287;50.858;0.252;2023-05-24T01:06:08;102450.63;;;15.38;34.45
73936;BME280;62287;50.858;0.252;2023-05-24T01:06:48;102450.38;;;15.41;34.40
73936;BME280;62287;50.858;0.252;2023-05-24T01:07:25;102450.54;;;15.35;34.53
73936;BME280;62287;50.858;0.252;2023-05-24T01:08:02;102449.85;;;15.08;34.68
73936;BME280;62287;50.858;0.252;2023-05-24T01:08:54;102450.12;;;15.23;34.31
73936;BME280;62287;50.858;0.252;2023-05-24T01:09:33;102448.83;;;15.42;34.58
73936;BME280;62287;50.858;0.252;2023-05-24T01:10:17;102445.76;;;15.22;34.38
73936;BME280;62287;50.858;0.252;2023-05-24T01:10:58;102445.08;;;15.20;34.41
73936;BME280;62287;50.858;0.252;2023-05-24T01:11:37;102444.44;;;15.11;34.43
73936;BME280;62287;50.858;0.252;2023-05-24T01:12:19;102442.46;;;15.85;34.39
73936;BME280;62287;50.858;0.252;2023-05-24T01:12:58;102439.34;;;15.41;34.17
73936;BME280;62287;50.858;0.252;2023-05-24T01:13:41;102437.90;;;15.85;34.12
73936;BME280;62287;50.858;0.252;2023-05-24T01:14:19;102439.16;;;15.87;34.05
73936;BME280;62287;50.858;0.252;2023-05-24T01:14:58;102437.13;;;15.97;33.98
73936;BME280;62287;50.858;0.252;2023-05-24T01:15:41;102435.07;;;15.54;33.95
73936;BME280;62287;50.858;0.252;2023-05-24T01:16:19;102435.64;;;15.92;33.94
73936;BME280;62287;50.858;0.252;2023-05-24T01:16:55;102436.37;;;16.18;34.04
73936;BME280;62287;50.858;0.252;2023-05-24T01:17:34;102439.05;;;15.49;34.12
73936;BME280;62287;50.858;0.252;2023-05-24T01:18:14;102437.70;;;15.31;34.05
73936;BME280;62287;50.858;0.252;2023-05-24T01:18:50;102438.01;;;14.74;33.98
73936;BME280;62287;50.858;0.252;2023-05-24T01:20:05;102437.21;;;15.63;33.93
73936;BME280;62287;50.858;0.252;2023-05-24T01:20:38;102436.97;;;15.67;33.93
73936;BME280;62287;50.858;0.252;2023-05-24T01:21:15;102435.39;;;15.79;33.69
73936;BME280;62287;50.858;0.252;2023-05-24T01:22:03;102435.34;;;15.58;33.89
73936;BME280;62287;50.858;0.252;2023-05-24T01:23:03;102434.85;;;15.85;33.74
73936;BME280;62287;50.858;0.252;2023-05-24T01:23:43;102434.80;;;15.86;33.71
73936;BME280;62287;50.858;0.252;2023-05-24T01:24:24;102431.96;;;15.69;33.87
73936;BME280;62287;50.858;0.252;2023-05-24T01:25:03;102432.29;;;15.78;33.85
73936;BME280;62287;50.858;0.252;2023-05-24T01:26:03;102430.18;;;15.81;33.81
73936;BME280;62287;50.858;0.252;2023-05-24T01:26:41;102428.63;;;15.94;33.65
73936;BME280;62287;50.858;0.252;2023-05-24T01:27:14;102429.16;;;15.68;33.78
73936;BME280;62287;50.858;0.252;2023-05-24T01:27:47;102430.24;;;15.60;33.82
73936;BME280;62287;50.858;0.252;2023-05-24T01:28:20;102428.10;;;15.62;33.87
73936;BME280;62287;50.858;0.252;2023-05-24T01:28:53;102429.76;;;15.66;33.85
73936;BME280;62287;50.858;0.252;2023-05-24T01:29:25;102430.19;;;15.96;33.64
73936;BME280;62287;50.858;0.252;2023-05-24T01:29:57;102431.01;;;16.00;33.60
73936;BME280;62287;50.858;0.252;2023-05-24T01:30:29;102430.91;;;16.29;33.64
73936;BME280;62287;50.858;0.252;2023-05-24T01:31:01;102435.39;;;15.78;33.75
73936;BME280;62287;50.858;0.252;2023-05-24T01:31:33;102435.66;;;16.09;33.76
73936;BME280;62287;50.858;0.252;2023-05-24T01:32:06;102436.33;;;15.67;33.76
73936;BME280;62287;50.858;0.252;2023-05-24T01:32:37;102435.89;;;16.00;33.79
73936;BME280;62287;50.858;0.252;2023-05-24T01:33:08;102437.26;;;15.79;33.83
73936;BME280;62287;50.858;0.252;2023-05-24T01:33:40;102439.27;;;15.70;33.80
73936;BME280;62287;50.858;0.252;2023-05-24T01:34:12;102438.76;;;15.48;33.85
73936;BME280;62287;50.858;0.252;2023-05-24T01:34:43;102439.85;;;15.88;33.83
73936;BME280;62287;50.858;0.252;2023-05-24T01:35:14;102441.36;;;15.45;33.85
73936;BME280;62287;50.858;0.252;2023-05-24T01:35:45;102440.17;;;15.97;33.88
73936;BME280;62287;50.858;0.252;2023-05-24T01:36:15;102438.17;;;16.00;33.88
73936;BME280;62287;50.858;0.252;2023-05-24T01:36:46;102437.48;;;15.57;33.92
73936;BME280;62287;50.858;0.252;2023-05-24T01:37:17;102441.03;;;15.70;34.02
73936;BME280;62287;50.858;0.252;2023-05-24T01:37:48;102436.42;;;15.56;33.90
73936;BME280;62287;50.858;0.252;2023-05-24T01:38:19;102439.80;;;15.07;34.00
73936;BME280;62287;50.858;0.252;2023-05-24T01:38:50;102440.41;;;15.50;34.01
73936;BME280;62287;50.858;0.252;2023-05-24T01:39:25;102441.51;;;15.48;33.98
73936;BME280;62287;50.858;0.252;2023-05-24T01:39:57;102439.12;;;15.55;33.97
73936;BME280;62287;50.858;0.252;2023-05-24T01:40:28;102439.41;;;15.95;33.91
73936;BME280;62287;50.858;0.252;2023-05-24T01:41:03;102443.60;;;15.45;33.99
73936;BME280;62287;50.858;0.252;2023-05-24T01:41:38;102443.36;;;15.57;33.95
73936;BME280;62287;50.858;0.252;2023-05-24T01:42:21;102440.66;;;16.03;33.82
73936;BME280;62287;50.858;0.252;2023-05-24T01:42:58;102440.24;;;16.15;33.93
73936;BME280;62287;50.858;0.252;2023-05-24T01:43:37;102440.81;;;16.02;34.00
73936;BME280;62287;50.858;0.252;2023-05-24T01:44:17;102441.35;;;15.93;34.03
73936;BME280;62287;50.858;0.252;2023-05-24T01:45:03;102444.20;;;15.56;34.15
73936;BME280;62287;50.858;0.252;2023-05-24T01:45:39;102439.47;;;15.61;34.01
73936;BME280;62287;50.858;0.252;2023-05-24T01:46:24;102439.94;;;15.46;33.86
73936;BME280;62287;50.858;0.252;2023-05-24T01:47:03;102439.90;;;15.54;33.94
73936;BME280;62287;50.858;0.252;2023-05-24T01:47:50;102438.23;;;15.96;33.86
73936;BME280;62287;50.858;0.252;2023-05-24T01:48:33;102442.15;;;15.41;33.93
73936;BME280;62287;50.858;0.252;2023-05-24T01:49:12;102440.13;;;15.92;33.84
73936;BME280;62287;50.858;0.252;2023-05-24T01:49:49;102441.96;;;15.47;33.85
73936;BME280;62287;50.858;0.252;2023-05-24T01:50:24;102441.43;;;15.70;33.99
73936;BME280;62287;50.858;0.252;2023-05-24T01:50:57;102440.98;;;15.56;33.77
73936;BME280;62287;50.858;0.252;2023-05-24T01:51:33;102443.58;;;15.55;33.87
73936;BME280;62287;50.858;0.252;2023-05-24T01:52:11;102441.05;;;15.55;33.80
73936;BME280;62287;50.858;0.252;2023-05-24T01:52:45;102442.62;;;15.64;33.74
73936;BME280;62287;50.858;0.252;2023-05-24T01:53:20;102444.27;;;15.85;33.79
73936;BME280;62287;50.858;0.252;2023-05-24T01:53:54;102445.67;;;15.30;33.94
73936;BME280;62287;50.858;0.252;2023-05-24T01:54:32;102447.21;;;15.26;33.92
73936;BME280;62287;50.858;0.252;2023-05-24T01:55:04;102445.72;;;15.38;33.84
73936;BME280;62287;50.858;0.252;2023-05-24T01:55:37;102445.78;;;15.14;33.98
73936;BME280;62287;50.858;0.252;2023-05-24T01:56:10;102446.99;;;15.26;34.01
73936;BME280;62287;50.858;0.252;2023-05-24T01:56:43;102445.73;;;15.39;33.82
73936;BME280;62287;50.858;0.252;2023-05-24T01:57:18;102444.59;;;15.35;33.72
73936;BME280;62287;50.858;0.252;2023-05-24T01:57:50;102443.56;;;15.70;33.82
73936;BME280;62287;50.858;0.252;2023-05-24T01:58:22;102443.21;;;15.28;33.96
73936;BME280;62287;50.858;0.252;2023-05-24T01:58:55;102442.57;;;15.18;33.90
73936;BME280;62287;50.858;0.252;2023-05-24T01:59:29;102442.08;;;15.20;34.09
73936;BME280;62287;50.858;0.252;2023-05-24T02:00:04;102438.91;;;15.12;34.13
73936;BME280;62287;50.858;0.252;2023-05-24T02:00:38;102437.70;;;14.42;34.20
73936;BME280;62287;50.858;0.252;2023-05-24T02:01:11;102437.97;;;15.24;34.05
73936;BME280;62287;50.858;0.252;2023-05-24T02:01:42;102438.04;;;15.33;34.11
73936;BME280;62287;50.858;0.252;2023-05-24T02:02:13;102436.01;;;15.34;34.03
73936;BME280;62287;50.858;0.252;2023-05-24T02:02:44;102438.19;;;15.18;34.31
73936;BME280;62287;50.858;0.252;2023-05-24T02:03:16;102437.42;;;14.98;34.21
73936;BME280;62287;50.858;0.252;2023-05-24T02:03:47;102437.91;;;15.10;34.23
73936;BME280;62287;50.858;0.252;2023-05-24T02:04:19;102435.75;;;15.51;34.14
73936;BME280;62287;50.858;0.252;2023-05-24T02:04:50;102436.62;;;15.11;34.28
73936;BME280;62287;50.858;0.252;2023-05-24T02:05:21;102435.29;;;15.61;34.15
73936;BME280;62287;50.858;0.252;2023-05-24T02:05:52;102434.32;;;15.21;34.08
73936;BME280;62287;50.858;0.252;2023-05-24T02:06:23;102434.57;;;15.28;34.03
73936;BME280;62287;50.858;0.252;2023-05-24T02:06:54;102434.94;;;15.83;34.01
73936;BME280;62287;50.858;0.252;2023-05-24T02:07:25;102435.48;;;15.40;34.05
73936;BME280;62287;50.858;0.252;2023-05-24T02:07:56;102433.11;;;15.37;34.07
73936;BME280;62287;50.858;0.252;2023-05-24T02:08:26;102434.65;;;15.31;34.02
73936;BME280;62287;50.858;0.252;2023-05-24T02:08:57;102434.90;;;15.79;34.04
73936;BME280;62287;50.858;0.252;2023-05-24T02:09:28;102434.79;;;15.62;34.08
73936;BME280;62287;50.858;0.252;2023-05-24T02:09:59;102434.27;;;15.31;34.25
73936;BME280;62287;50.858;0.252;2023-05-24T02:10:30;102432.57;;;15.37;34.13
73936;BME280;62287;50.858;0.252;2023-05-24T02:11:01;102432.87;;;15.21;34.12
73936;BME280;62287;50.858;0.252;2023-05-24T02:11:32;102431.09;;;15.41;34.15
73936;BME280;62287;50.858;0.252;2023-05-24T02:12:04;102428.84;;;15.79;34.10
73936;BME280;62287;50.858;0.252;2023-05-24T02:12:36;102426.07;;;15.63;34.03
73936;BME280;62287;50.858;0.252;2023-05-24T02:13:07;102424.76;;;15.70;33.99
73936;BME280;62287;50.858;0.252;2023-05-24T02:13:38;102425.78;;;15.52;34.06
73936;BME280;62287;50.858;0.252;2023-05-24T02:14:09;102428.80;;;15.34;34.19
73936;BME280;62287;50.858;0.252;2023-05-24T02:14:40;102430.09;;;15.68;34.16
73936;BME280;62287;50.858;0.252;2023-05-24T02:15:11;102431.15;;;15.65;34.22
73936;BME280;62287;50.858;0.252;2023-05-24T02:15:42;102432.89;;;15.67;34.13
73936;BME280;62287;50.858;0.252;2023-05-24T02:16:13;102429.93;;;15.36;34.05
73936;BME280;62287;50.858;0.252;2023-05-24T02:16:45;102430.32;;;15.50;34.25
73936;BME280;62287;50.858;0.252;2023-05-24T02:17:16;102431.29;;;15.13;34.33
73936;BME280;62287;50.858;0.252;2023-05-24T02:17:47;102430.02;;;15.09;34.27
73936;BME280;62287;50.858;0.252;2023-05-24T02:18:18;102431.11;;;15.20;34.24
73936;BME280;62287;50.858;0.252;2023-05-24T02:18:49;102429.05;;;15.21;34.25
73936;BME280;62287;50.858;0.252;2023-05-24T02:19:20;102432.94;;;15.38;34.12
73936;BME280;62287;50.858;0.252;2023-05-24T02:19:51;102432.07;;;15.66;34.17
73936;BME280;62287;50.858;0.252;2023-05-24T02:20:21;102431.14;;;15.08;34.24
73936;BME280;62287;50.858;0.252;2023-05-24T02:20:52;102426.69;;;15.55;34.09
73936;BME280;62287;50.858;0.252;2023-05-24T02:21:23;102425.47;;;15.61;34.00
73936;BME280;62287;50.858;0.252;2023-05-24T02:21:54;102425.42;;;15.50;34.05
73936;BME280;62287;50.858;0.252;2023-05-24T02:22:25;102424.24;;;15.66;33.94
73936;BME280;62287;50.858;0.252;2023-05-24T02:22:56;102421.48;;;15.53;34.06
73936;BME280;62287;50.858;0.252;2023-05-24T02:23:27;102422.58;;;15.39;34.12
73936;BME280;62287;50.858;0.252;2023-05-24T02:23:58;102425.65;;;15.47;34.12
73936;BME280;62287;50.858;0.252;2023-05-24T02:24:29;102425.41;;;16.13;34.00
73936;BME280;62287;50.858;0.252;2023-05-24T02:25:00;102425.28;;;15.55;33.94
73936;BME280;62287;50.858;0.252;2023-05-24T02:25:31;102426.11;;;15.79;33.98
73936;BME280;62287;50.858;0.252;2023-05-24T02:26:02;102425.14;;;15.12;33.91
73936;BME280;62287;50.858;0.252;2023-05-24T02:26:33;102426.75;;;15.99;33.79
73936;BME280;62287;50.858;0.252;2023-05-24T02:27:04;102427.39;;;15.97;33.87
73936;BME280;62287;50.858;0.252;2023-05-24T02:27:36;102427.69;;;15.53;33.87
73936;BME280;62287;50.858;0.252;2023-05-24T02:28:06;102429.38;;;15.31;33.98
73936;BME280;62287;50.858;0.252;2023-05-24T02:28:37;102428.96;;;15.93;34.04
73936;BME280;62287;50.858;0.252;2023-05-24T02:29:08;102428.83;;;15.14;34.09
73936;BME280;62287;50.858;0.252;2023-05-24T02:29:40;102428.41;;;15.14;34.27
73936;BME280;62287;50.858;0.252;2023-05-24T02:30:11;102426.27;;;15.02;34.26
73936;BME280;62287;50.858;0.252;2023-05-24T02:30:42;102426.91;;;15.20;34.22
73936;BME280;62287;50.858;0.252;2023-05-24T02:31:13;102426.42;;;15.21;34.29
73936;BME280;62287;50.858;0.252;2023-05-24T02:31:44;102424.56;;;15.55;34.35
73936;BME280;62287;50.858;0.252;2023-05-24T02:32:15;102422.71;;;15.19;34.34
73936;BME280;62287;50.858;0.252;2023-05-24T02:32:46;102419.37;;;15.69;34.38
73936;BME280;62287;50.858;0.252;2023-05-24T02:33:17;102420.29;;;15.22;34.42
73936;BME280;62287;50.858;0.252;2023-05-24T02:33:48;102417.91;;;15.35;34.30
73936;BME280;62287;50.858;0.252;2023-05-24T02:34:19;102421.31;;;15.21;34.29
73936;BME280;62287;50.858;0.252;2023-05-24T02:34:50;102420.48;;;15.56;34.38
73936;BME280;62287;50.858;0.252;2023-05-24T02:35:21;102421.17;;;15.11;34.47
73936;BME280;62287;50.858;0.252;2023-05-24T02:35:52;102420.60;;;15.87;34.39
73936;BME280;62287;50.858;0.252;2023-05-24T02:36:23;102415.43;;;15.31;34.25
73936;BME280;62287;50.858;0.252;2023-05-24T02:36:54;102416.43;;;15.66;34.30
73936;BME280;62287;50.858;0.252;2023-05-24T02:37:25;102417.04;;;15.29;34.31
73936;BME280;62287;50.858;0.252;2023-05-24T02:37:56;102415.75;;;15.33;34.26
73936;BME280;62287;50.858;0.252;2023-05-24T02:38:27;102415.58;;;15.38;34.35
73936;BME280;62287;50.858;0.252;2023-05-24T02:38:57;102416.76;;;15.32;34.41
73936;BME280;62287;50.858;0.252;2023-05-24T02:39:28;102419.33;;;14.95;34.44
73936;BME280;62287;50.858;0.252;2023-05-24T02:39:59;102416.51;;;15.52;34.33
73936;BME280;62287;50.858;0.252;2023-05-24T02:40:30;102416.54;;;15.41;34.28
73936;BME280;62287;50.858;0.252;2023-05-24T02:41:01;102418.97;;;15.19;34.42
73936;BME280;62287;50.858;0.252;2023-05-24T02:41:32;102417.89;;;15.26;34.32
73936;BME280;62287;50.858;0.252;2023-05-24T02:42:03;102420.59;;;15.09;34.31
73936;BME280;62287;50.858;0.252;2023-05-24T02:42:34;102420.33;;;15.20;34.32
73936;BME280;62287;50.858;0.252;2023-05-24T02:43:05;102418.41;;;14.88;34.29
73936;BME280;62287;50.858;0.252;2023-05-24T02:43:36;102415.28;;;15.41;34.28
73936;BME280;62287;50.858;0.252;2023-05-24T02:44:07;102415.01;;;15.00;34.19
73936;BME280;62287;50.858;0.252;2023-05-24T02:44:37;102416.46;;;15.28;34.24
73936;BME280;62287;50.858;0.252;2023-05-24T02:45:09;102416.34;;;15.23;34.26
73936;BME280;62287;50.858;0.252;2023-05-24T02:45:40;102415.63;;;15.27;34.21
73936;BME280;62287;50.858;0.252;2023-05-24T02:46:11;102415.10;;;15.09;34.35
73936;BME280;62287;50.858;0.252;2023-05-24T02:46:42;102415.03;;;15.60;34.22
73936;BME280;62287;50.858;0.252;2023-05-24T02:47:13;102410.81;;;15.76;34.16
73936;BME280;62287;50.858;0.252;2023-05-24T02:47:44;102410.45;;;15.27;34.27
73936;BME280;62287;50.858;0.252;2023-05-24T02:48:15;102412.14;;;15.22;34.29
73936;BME280;62287;50.858;0.252;2023-05-24T02:48:46;102411.26;;;15.30;34.33
73936;BME280;62287;50.858;0.252;2023-05-24T02:49:17;102408.76;;;15.23;34.36
73936;BME280;62287;50.858;0.252;2023-05-24T02:49:48;102407.18;;;15.19;34.39
73936;BME280;62287;50.858;0.252;2023-05-24T02:50:18;102404.88;;;15.30;34.31
73936;BME280;62287;50.858;0.252;2023-05-24T02:50:49;102401.37;;;15.79;34.35
73936;BME280;62287;50.858;0.252;2023-05-24T02:51:20;102400.72;;;15.29;34.37